sensor_id;sensor_type;location;lat;lon;timestamp;P1;durP1;ratioP1;P2;durP2;ratioP2
2211;SDS011;48849;48.758;9.158;2022-12-10T00:02:07;35.38;;;22.88;;
2211;SDS011;48849;48.758;9.158;2022-12-10T00:04:33;32.45;;;23.58;;
2211;SDS011;48849;48.758;9.158;2022-12-10T00:07:01;32.10;;;23.23;;
2211;SDS011;48849;48.758;9.158;2022-12-10T00:09:28;34.90;;;23.88;;
2211;SDS011;48849;48.758;9.158;2022-12-10T00:11:55;31.35;;;23.02;;
2211;SDS011;48849;48.758;9.158;2022-12-10T00:14:22;32.50;;;25.17;;
2211;SDS011;48849;48.758;9.158;2022-12-10T00:16:48;32.83;;;24.45;;
2211;SDS011;48849;48.758;9.158;2022-12-10T00:19:15;32.70;;;23.02;;
2211;SDS011;48849;48.758;9.158;2022-12-10T00:21:42;35.25;;;26.08;;
2211;SDS011;48849;48.758;9.158;2022-12-10T00:24:11;34.00;;;23.95;;
2211;SDS011;48849;48.758;9.158;2022-12-10T00:26:38;32.65;;;24.95;;
2211;SDS011;48849;48.758;9.158;2022-12-10T00:29:06;32.50;;;22.52;;
2211;SDS011;48849;48.758;9.158;2022-12-10T00:31:36;31.80;;;23.50;;
2211;SDS011;48849;48.758;9.158;2022-12-10T00:34:04;33.03;;;24.27;;
2211;SDS011;48849;48.758;9.158;2022-12-10T00:36:33;31.08;;;22.50;;
2211;SDS011;48849;48.758;9.158;2022-12-10T00:39:01;30.65;;;22.15;;
2211;SDS011;48849;48.758;9.158;2022-12-10T00:41:30;29.73;;;22.23;;
2211;SDS011;48849;48.758;9.158;2022-12-10T00:43:57;28.92;;;21.33;;
2211;SDS011;48849;48.758;9.158;2022-12-10T00:46:25;27.90;;;22.13;;
2211;SDS011;48849;48.758;9.158;2022-12-10T00:48:51;34.13;;;21.85;;
2211;SDS011;48849;48.758;9.158;2022-12-10T00:51:19;29.58;;;22.90;;
2211;SDS011;48849;48.758;9.158;2022-12-10T00:53:48;27.75;;;21.63;;
2211;SDS011;48849;48.758;9.158;2022-12-10T00:56:17;29.83;;;22.73;;
2211;SDS011;48849;48.758;9.158;2022-12-10T00:58:47;30.67;;;22.73;;
2211;SDS011;48849;48.758;9.158;2022-12-10T01:01:15;28.27;;;22.67;;
2211;SDS011;48849;48.758;9.158;2022-12-10T01:03:43;30.95;;;22.08;;
2211;SDS011;48849;48.758;9.158;2022-12-10T01:06:11;28.20;;;21.98;;
2211;SDS011;48849;48.758;9.158;2022-12-10T01:08:39;30.05;;;22.88;;
2211;SDS011;48849;48.758;9.158;2022-12-10T01:11:07;27.77;;;20.90;;
2211;SDS011;48849;48.758;9.158;2022-12-10T01:13:34;28.30;;;21.52;;
2211;SDS011;48849;48.758;9.158;2022-12-10T01:16:03;30.08;;;22.38;;
2211;SDS011;48849;48.758;9.158;2022-12-10T01:18:31;27.30;;;21.13;;
2211;SDS011;48849;48.758;9.158;2022-12-10T01:21:00;27.73;;;20.70;;
2211;SDS011;48849;48.758;9.158;2022-12-10T01:23:27;26.08;;;20.83;;
2211;SDS011;48849;48.758;9.158;2022-12-10T01:25:54;30.77;;;22.13;;
2211;SDS011;48849;48.758;9.158;2022-12-10T01:28:25;26.17;;;20.48;;
2211;SDS011;48849;48.758;9.158;2022-12-10T01:30:55;26.73;;;20.83;;
2211;SDS011;48849;48.758;9.158;2022-12-10T01:33:23;25.83;;;20.77;;
2211;SDS011;48849;48.758;9.158;2022-12-10T01:35:50;27.73;;;20.95;;
2211;SDS011;48849;48.758;9.158;2022-12-10T01:38:16;27.67;;;20.80;;
2211;SDS011;48849;48.758;9.158;2022-12-10T01:40:43;29.77;;;21.73;;
2211;SDS011;48849;48.758;9.158;2022-12-10T01:43:10;28.50;;;20.65;;
2211;SDS011;48849;48.758;9.158;2022-12-10T01:45:39;28.88;;;21.35;;
2211;SDS011;48849;48.758;9.158;2022-12-10T01:48:06;27.80;;;21.52;;
2211;SDS011;48849;48.758;9.158;2022-12-10T01:50:34;31.60;;;20.77;;
2211;SDS011;48849;48.758;9.158;2022-12-10T01:53:01;26.92;;;19.90;;
2211;SDS011;48849;48.758;9.158;2022-12-10T01:55:39;26.40;;;20.40;;
2211;SDS011;48849;48.758;9.158;2022-12-10T01:58:08;26.63;;;20.30;;
2211;SDS011;48849;48.758;9.158;2022-12-10T02:00:37;25.33;;;20.98;;
2211;SDS011;48849;48.758;9.158;2022-12-10T02:03:10;26.63;;;20.00;;
2211;SDS011;48849;48.758;9.158;2022-12-10T02:05:47;26.67;;;20.42;;
2211;SDS011;48849;48.758;9.158;2022-12-10T02:08:24;26.60;;;20.13;;
2211;SDS011;48849;48.758;9.158;2022-12-10T02:10:55;30.48;;;22.05;;
2211;SDS011;48849;48.758;9.158;2022-12-10T02:13:30;26.77;;;21.08;;
2211;SDS011;48849;48.758;9.158;2022-12-10T02:16:01;30.20;;;21.35;;
2211;SDS011;48849;48.758;9.158;2022-12-10T02:18:33;26.17;;;19.90;;
2211;SDS011;48849;48.758;9.158;2022-12-10T02:21:08;23.75;;;18.88;;
2211;SDS011;48849;48.758;9.158;2022-12-10T02:23:39;23.95;;;19.27;;
2211;SDS011;48849;48.758;9.158;2022-12-10T02:26:10;29.58;;;21.42;;
2211;SDS011;48849;48.758;9.158;2022-12-10T02:28:42;26.95;;;19.73;;
2211;SDS011;48849;48.758;9.158;2022-12-10T02:31:18;27.65;;;19.92;;
2211;SDS011;48849;48.758;9.158;2022-12-10T02:33:51;29.05;;;20.88;;
2211;SDS011;48849;48.758;9.158;2022-12-10T02:36:21;27.42;;;20.85;;
2211;SDS011;48849;48.758;9.158;2022-12-10T02:38:51;29.02;;;20.92;;
2211;SDS011;48849;48.758;9.158;2022-12-10T02:41:21;27.15;;;19.95;;
2211;SDS011;48849;48.758;9.158;2022-12-10T02:43:52;27.15;;;21.13;;
2211;SDS011;48849;48.758;9.158;2022-12-10T02:46:21;25.10;;;20.38;;
2211;SDS011;48849;48.758;9.158;2022-12-10T02:48:50;26.45;;;20.42;;
2211;SDS011;48849;48.758;9.158;2022-12-10T02:51:18;25.10;;;19.95;;
2211;SDS011;48849;48.758;9.158;2022-12-10T02:53:45;23.58;;;18.88;;
2211;SDS011;48849;48.758;9.158;2022-12-10T02:56:14;26.52;;;19.45;;
2211;SDS011;48849;48.758;9.158;2022-12-10T02:58:47;26.38;;;20.17;;
2211;SDS011;48849;48.758;9.158;2022-12-10T03:01:26;28.92;;;20.98;;
2211;SDS011;48849;48.758;9.158;2022-12-10T03:04:05;26.63;;;20.23;;
2211;SDS011;48849;48.758;9.158;2022-12-10T03:06:38;28.48;;;20.73;;
2211;SDS011;48849;48.758;9.158;2022-12-10T03:09:11;26.60;;;20.33;;
2211;SDS011;48849;48.758;9.158;2022-12-10T03:11:43;24.33;;;20.08;;
2211;SDS011;48849;48.758;9.158;2022-12-10T03:14:14;25.85;;;20.48;;
2211;SDS011;48849;48.758;9.158;2022-12-10T03:16:47;29.20;;;21.80;;
2211;SDS011;48849;48.758;9.158;2022-12-10T03:19:20;27.33;;;20.08;;
2211;SDS011;48849;48.758;9.158;2022-12-10T03:21:50;28.58;;;20.10;;
2211;SDS011;48849;48.758;9.158;2022-12-10T03:24:18;30.33;;;21.88;;
2211;SDS011;48849;48.758;9.158;2022-12-10T03:26:47;24.63;;;18.98;;
2211;SDS011;48849;48.758;9.158;2022-12-10T03:29:17;26.48;;;19.75;;
2211;SDS011;48849;48.758;9.158;2022-12-10T03:31:49;27.30;;;19.50;;
2211;SDS011;48849;48.758;9.158;2022-12-10T03:34:18;27.77;;;19.98;;
2211;SDS011;48849;48.758;9.158;2022-12-10T03:36:46;28.02;;;21.02;;
2211;SDS011;48849;48.758;9.158;2022-12-10T03:39:14;27.30;;;20.15;;
2211;SDS011;48849;48.758;9.158;2022-12-10T03:41:42;28.90;;;21.13;;
2211;SDS011;48849;48.758;9.158;2022-12-10T03:44:09;31.92;;;22.20;;
2211;SDS011;48849;48.758;9.158;2022-12-10T03:46:36;28.35;;;21.05;;
2211;SDS011;48849;48.758;9.158;2022-12-10T03:49:04;27.10;;;19.80;;
2211;SDS011;48849;48.758;9.158;2022-12-10T03:51:31;26.00;;;19.92;;
2211;SDS011;48849;48.758;9.158;2022-12-10T03:53:58;27.05;;;20.13;;
2211;SDS011;48849;48.758;9.158;2022-12-10T03:56:24;27.52;;;20.30;;
2211;SDS011;48849;48.758;9.158;2022-12-10T03:58:51;29.83;;;19.27;;
2211;SDS011;48849;48.758;9.158;2022-12-10T04:01:18;28.30;;;20.65;;
2211;SDS011;48849;48.758;9.158;2022-12-10T04:03:44;28.92;;;20.45;;
2211;SDS011;48849;48.758;9.158;2022-12-10T04:06:13;27.55;;;19.90;;
2211;SDS011;48849;48.758;9.158;2022-12-10T04:08:41;27.95;;;20.70;;
2211;SDS011;48849;48.758;9.158;2022-12-10T04:11:09;26.85;;;20.23;;
2211;SDS011;48849;48.758;9.158;2022-12-10T04:13:37;27.27;;;20.25;;
2211;SDS011;48849;48.758;9.158;2022-12-10T04:16:22;25.70;;;19.48;;
2211;SDS011;48849;48.758;9.158;2022-12-10T04:18:53;27.17;;;20.33;;
2211;SDS011;48849;48.758;9.158;2022-12-10T04:21:21;24.98;;;19.23;;
2211;SDS011;48849;48.758;9.158;2022-12-10T04:24:07;25.90;;;19.65;;
2211;SDS011;48849;48.758;9.158;2022-12-10T04:26:52;26.58;;;20.15;;
2211;SDS011;48849;48.758;9.158;2022-12-10T04:29:20;23.35;;;19.90;;
2211;SDS011;48849;48.758;9.158;2022-12-10T04:31:48;28.52;;;20.95;;
2211;SDS011;48849;48.758;9.158;2022-12-10T04:34:15;25.38;;;19.30;;
2211;SDS011;48849;48.758;9.158;2022-12-10T04:36:43;25.90;;;19.83;;
2211;SDS011;48849;48.758;9.158;2022-12-10T04:39:10;25.17;;;19.15;;
2211;SDS011;48849;48.758;9.158;2022-12-10T04:41:38;27.60;;;20.58;;
2211;SDS011;48849;48.758;9.158;2022-12-10T04:44:06;27.30;;;20.42;;
2211;SDS011;48849;48.758;9.158;2022-12-10T04:46:33;25.80;;;20.08;;
2211;SDS011;48849;48.758;9.158;2022-12-10T04:49:00;23.90;;;19.48;;
2211;SDS011;48849;48.758;9.158;2022-12-10T04:51:27;25.35;;;19.35;;
2211;SDS011;48849;48.758;9.158;2022-12-10T04:53:55;25.75;;;19.15;;
2211;SDS011;48849;48.758;9.158;2022-12-10T04:56:22;24.92;;;19.10;;
2211;SDS011;48849;48.758;9.158;2022-12-10T04:58:49;25.70;;;20.70;;
2211;SDS011;48849;48.758;9.158;2022-12-10T05:01:16;26.83;;;20.05;;
2211;SDS011;48849;48.758;9.158;2022-12-10T05:03:44;28.38;;;20.83;;
2211;SDS011;48849;48.758;9.158;2022-12-10T05:06:12;25.45;;;20.08;;
2211;SDS011;48849;48.758;9.158;2022-12-10T05:08:40;29.50;;;19.80;;
2211;SDS011;48849;48.758;9.158;2022-12-10T05:11:10;24.83;;;19.38;;
2211;SDS011;48849;48.758;9.158;2022-12-10T05:13:38;27.55;;;19.65;;
2211;SDS011;48849;48.758;9.158;2022-12-10T05:16:06;27.55;;;20.90;;
2211;SDS011;48849;48.758;9.158;2022-12-10T05:18:35;26.90;;;20.60;;
2211;SDS011;48849;48.758;9.158;2022-12-10T05:21:03;28.20;;;21.05;;
2211;SDS011;48849;48.758;9.158;2022-12-10T05:23:31;32.35;;;21.88;;
2211;SDS011;48849;48.758;9.158;2022-12-10T05:25:58;28.15;;;18.75;;
2211;SDS011;48849;48.758;9.158;2022-12-10T05:28:28;27.98;;;20.05;;
2211;SDS011;48849;48.758;9.158;2022-12-10T05:30:55;24.95;;;21.10;;
2211;SDS011;48849;48.758;9.158;2022-12-10T05:33:23;26.98;;;20.40;;
2211;SDS011;48849;48.758;9.158;2022-12-10T05:35:53;26.17;;;20.50;;
2211;SDS011;48849;48.758;9.158;2022-12-10T05:38:21;27.08;;;20.00;;
2211;SDS011;48849;48.758;9.158;2022-12-10T05:40:48;24.33;;;19.58;;
2211;SDS011;48849;48.758;9.158;2022-12-10T05:43:15;24.85;;;19.52;;
2211;SDS011;48849;48.758;9.158;2022-12-10T05:45:43;23.45;;;18.77;;
2211;SDS011;48849;48.758;9.158;2022-12-10T05:48:10;27.65;;;20.27;;
2211;SDS011;48849;48.758;9.158;2022-12-10T05:50:37;28.30;;;20.20;;
2211;SDS011;48849;48.758;9.158;2022-12-10T05:53:04;27.92;;;20.73;;
2211;SDS011;48849;48.758;9.158;2022-12-10T05:55:31;26.08;;;19.85;;
2211;SDS011;48849;48.758;9.158;2022-12-10T05:57:58;28.25;;;21.02;;
2211;SDS011;48849;48.758;9.158;2022-12-10T06:00:25;26.45;;;20.25;;
2211;SDS011;48849;48.758;9.158;2022-12-10T06:02:54;27.00;;;19.80;;
2211;SDS011;48849;48.758;9.158;2022-12-10T06:05:21;26.88;;;21.38;;
2211;SDS011;48849;48.758;9.158;2022-12-10T06:07:47;26.98;;;21.40;;
2211;SDS011;48849;48.758;9.158;2022-12-10T06:10:14;25.63;;;21.25;;
2211;SDS011;48849;48.758;9.158;2022-12-10T06:12:41;26.73;;;20.02;;
2211;SDS011;48849;48.758;9.158;2022-12-10T06:15:08;26.38;;;20.38;;
2211;SDS011;48849;48.758;9.158;2022-12-10T06:17:35;25.63;;;20.85;;
2211;SDS011;48849;48.758;9.158;2022-12-10T06:20:04;25.25;;;19.45;;
2211;SDS011;48849;48.758;9.158;2022-12-10T06:22:32;27.27;;;21.33;;
2211;SDS011;48849;48.758;9.158;2022-12-10T06:24:59;24.75;;;19.15;;
2211;SDS011;48849;48.758;9.158;2022-12-10T06:27:26;28.77;;;21.77;;
2211;SDS011;48849;48.758;9.158;2022-12-10T06:29:55;28.17;;;20.60;;
2211;SDS011;48849;48.758;9.158;2022-12-10T06:32:21;25.92;;;19.60;;
2211;SDS011;48849;48.758;9.158;2022-12-10T06:34:48;28.25;;;20.92;;
2211;SDS011;48849;48.758;9.158;2022-12-10T06:37:16;25.73;;;19.98;;
2211;SDS011;48849;48.758;9.158;2022-12-10T06:39:43;24.88;;;20.15;;
2211;SDS011;48849;48.758;9.158;2022-12-10T06:42:09;29.10;;;21.25;;
2211;SDS011;48849;48.758;9.158;2022-12-10T06:44:36;26.27;;;20.95;;
2211;SDS011;48849;48.758;9.158;2022-12-10T06:47:03;28.17;;;21.15;;
2211;SDS011;48849;48.758;9.158;2022-12-10T06:49:30;30.85;;;22.30;;
2211;SDS011;48849;48.758;9.158;2022-12-10T06:51:56;24.35;;;17.92;;
2211;SDS011;48849;48.758;9.158;2022-12-10T06:54:24;29.40;;;21.20;;
2211;SDS011;48849;48.758;9.158;2022-12-10T06:56:51;31.60;;;22.30;;
2211;SDS011;48849;48.758;9.158;2022-12-10T06:59:18;23.73;;;19.02;;
2211;SDS011;48849;48.758;9.158;2022-12-10T07:01:45;27.98;;;21.27;;
2211;SDS011;48849;48.758;9.158;2022-12-10T07:04:12;27.30;;;21.08;;
2211;SDS011;48849;48.758;9.158;2022-12-10T07:06:39;30.70;;;20.70;;
2211;SDS011;48849;48.758;9.158;2022-12-10T07:09:06;27.50;;;20.73;;
2211;SDS011;48849;48.758;9.158;2022-12-10T07:11:36;30.13;;;22.73;;
2211;SDS011;48849;48.758;9.158;2022-12-10T07:14:03;26.38;;;20.42;;
2211;SDS011;48849;48.758;9.158;2022-12-10T07:16:30;25.83;;;20.20;;
2211;SDS011;48849;48.758;9.158;2022-12-10T07:18:58;26.40;;;20.30;;
2211;SDS011;48849;48.758;9.158;2022-12-10T07:21:27;26.17;;;19.33;;
2211;SDS011;48849;48.758;9.158;2022-12-10T07:23:57;26.42;;;20.00;;
2211;SDS011;48849;48.758;9.158;2022-12-10T07:26:27;28.98;;;20.30;;
2211;SDS011;48849;48.758;9.158;2022-12-10T07:28:56;27.35;;;20.33;;
2211;SDS011;48849;48.758;9.158;2022-12-10T07:31:25;25.48;;;21.45;;
2211;SDS011;48849;48.758;9.158;2022-12-10T07:33:52;26.80;;;20.77;;
2211;SDS011;48849;48.758;9.158;2022-12-10T07:36:20;26.90;;;19.98;;
2211;SDS011;48849;48.758;9.158;2022-12-10T07:38:47;25.67;;;20.30;;
2211;SDS011;48849;48.758;9.158;2022-12-10T07:41:15;30.73;;;21.85;;
2211;SDS011;48849;48.758;9.158;2022-12-10T07:43:42;27.63;;;20.60;;
2211;SDS011;48849;48.758;9.158;2022-12-10T07:46:12;25.60;;;20.50;;
2211;SDS011;48849;48.758;9.158;2022-12-10T07:48:41;28.80;;;20.92;;
2211;SDS011;48849;48.758;9.158;2022-12-10T07:51:09;25.70;;;20.02;;
2211;SDS011;48849;48.758;9.158;2022-12-10T07:53:36;25.70;;;20.40;;
2211;SDS011;48849;48.758;9.158;2022-12-10T07:56:03;28.58;;;21.17;;
2211;SDS011;48849;48.758;9.158;2022-12-10T07:58:30;28.88;;;21.15;;
2211;SDS011;48849;48.758;9.158;2022-12-10T08:00:58;26.67;;;20.70;;
2211;SDS011;48849;48.758;9.158;2022-12-10T08:03:26;27.80;;;21.30;;
2211;SDS011;48849;48.758;9.158;2022-12-10T08:06:00;27.23;;;21.58;;
2211;SDS011;48849;48.758;9.158;2022-12-10T08:08:27;28.85;;;21.73;;
2211;SDS011;48849;48.758;9.158;2022-12-10T08:10:54;28.33;;;20.83;;
2211;SDS011;48849;48.758;9.158;2022-12-10T08:13:21;28.73;;;20.40;;
2211;SDS011;48849;48.758;9.158;2022-12-10T08:15:47;29.25;;;22.17;;
2211;SDS011;48849;48.758;9.158;2022-12-10T08:18:14;28.40;;;21.33;;
2211;SDS011;48849;48.758;9.158;2022-12-10T08:20:42;27.85;;;21.05;;
2211;SDS011;48849;48.758;9.158;2022-12-10T08:23:09;26.50;;;21.38;;
2211;SDS011;48849;48.758;9.158;2022-12-10T08:25:35;28.40;;;22.75;;
2211;SDS011;48849;48.758;9.158;2022-12-10T08:28:03;31.20;;;22.02;;
2211;SDS011;48849;48.758;9.158;2022-12-10T08:30:30;25.90;;;21.02;;
2211;SDS011;48849;48.758;9.158;2022-12-10T08:32:57;27.80;;;21.42;;
2211;SDS011;48849;48.758;9.158;2022-12-10T08:35:23;28.67;;;22.38;;
2211;SDS011;48849;48.758;9.158;2022-12-10T08:37:52;28.63;;;21.90;;
2211;SDS011;48849;48.758;9.158;2022-12-10T08:40:18;26.23;;;21.75;;
2211;SDS011;48849;48.758;9.158;2022-12-10T08:42:45;27.58;;;21.45;;
2211;SDS011;48849;48.758;9.158;2022-12-10T08:45:12;28.77;;;22.00;;
2211;SDS011;48849;48.758;9.158;2022-12-10T08:47:38;30.23;;;21.80;;
2211;SDS011;48849;48.758;9.158;2022-12-10T08:50:05;28.40;;;21.52;;
2211;SDS011;48849;48.758;9.158;2022-12-10T08:52:32;28.70;;;21.00;;
2211;SDS011;48849;48.758;9.158;2022-12-10T08:55:00;26.40;;;21.50;;
2211;SDS011;48849;48.758;9.158;2022-12-10T08:57:27;29.20;;;21.33;;
2211;SDS011;48849;48.758;9.158;2022-12-10T08:59:54;27.90;;;21.38;;
2211;SDS011;48849;48.758;9.158;2022-12-10T09:02:21;26.40;;;20.45;;
2211;SDS011;48849;48.758;9.158;2022-12-10T09:04:49;30.85;;;22.58;;
2211;SDS011;48849;48.758;9.158;2022-12-10T09:07:16;28.13;;;21.88;;
2211;SDS011;48849;48.758;9.158;2022-12-10T09:09:43;28.85;;;21.80;;
2211;SDS011;48849;48.758;9.158;2022-12-10T09:12:11;29.75;;;22.95;;
2211;SDS011;48849;48.758;9.158;2022-12-10T09:14:37;28.60;;;22.00;;
2211;SDS011;48849;48.758;9.158;2022-12-10T09:17:05;30.27;;;21.45;;
2211;SDS011;48849;48.758;9.158;2022-12-10T09:19:32;33.83;;;22.45;;
2211;SDS011;48849;48.758;9.158;2022-12-10T09:21:59;29.38;;;22.23;;
2211;SDS011;48849;48.758;9.158;2022-12-10T09:24:25;25.85;;;20.50;;
2211;SDS011;48849;48.758;9.158;2022-12-10T09:26:52;27.63;;;21.20;;
2211;SDS011;48849;48.758;9.158;2022-12-10T09:29:21;28.70;;;21.35;;
2211;SDS011;48849;48.758;9.158;2022-12-10T09:31:49;29.20;;;21.73;;
2211;SDS011;48849;48.758;9.158;2022-12-10T09:34:16;25.65;;;19.83;;
2211;SDS011;48849;48.758;9.158;2022-12-10T09:36:43;26.88;;;20.58;;
2211;SDS011;48849;48.758;9.158;2022-12-10T09:39:10;24.70;;;20.35;;
2211;SDS011;48849;48.758;9.158;2022-12-10T09:41:41;26.02;;;22.35;;
2211;SDS011;48849;48.758;9.158;2022-12-10T09:44:35;26.45;;;22.05;;
2211;SDS011;48849;48.758;9.158;2022-12-10T09:47:09;25.75;;;20.60;;
2211;SDS011;48849;48.758;9.158;2022-12-10T09:49:40;28.65;;;22.20;;
2211;SDS011;48849;48.758;9.158;2022-12-10T09:52:20;29.77;;;22.50;;
2211;SDS011;48849;48.758;9.158;2022-12-10T09:54:48;28.50;;;21.58;;
2211;SDS011;48849;48.758;9.158;2022-12-10T09:57:19;27.77;;;21.88;;
2211;SDS011;48849;48.758;9.158;2022-12-10T09:59:50;28.45;;;23.08;;
2211;SDS011;48849;48.758;9.158;2022-12-10T10:02:22;28.67;;;22.38;;
2211;SDS011;48849;48.758;9.158;2022-12-10T10:04:51;30.08;;;23.02;;
2211;SDS011;48849;48.758;9.158;2022-12-10T10:07:21;25.90;;;21.35;;
2211;SDS011;48849;48.758;9.158;2022-12-10T10:09:50;32.05;;;22.63;;
2211;SDS011;48849;48.758;9.158;2022-12-10T10:12:19;29.02;;;22.27;;
2211;SDS011;48849;48.758;9.158;2022-12-10T10:14:45;27.80;;;21.20;;
2211;SDS011;48849;48.758;9.158;2022-12-10T10:17:14;30.40;;;23.40;;
2211;SDS011;48849;48.758;9.158;2022-12-10T10:19:44;39.90;;;27.15;;
2211;SDS011;48849;48.758;9.158;2022-12-10T10:22:11;31.10;;;23.33;;
2211;SDS011;48849;48.758;9.158;2022-12-10T10:24:39;28.63;;;22.70;;
2211;SDS011;48849;48.758;9.158;2022-12-10T10:27:12;31.60;;;23.55;;
2211;SDS011;48849;48.758;9.158;2022-12-10T10:29:40;27.60;;;22.27;;
2211;SDS011;48849;48.758;9.158;2022-12-10T10:32:12;27.42;;;21.50;;
2211;SDS011;48849;48.758;9.158;2022-12-10T10:34:42;28.15;;;22.00;;
2211;SDS011;48849;48.758;9.158;2022-12-10T10:37:16;28.42;;;22.17;;
2211;SDS011;48849;48.758;9.158;2022-12-10T10:39:46;29.35;;;22.58;;
2211;SDS011;48849;48.758;9.158;2022-12-10T10:42:19;29.13;;;21.17;;
2211;SDS011;48849;48.758;9.158;2022-12-10T10:45:01;28.23;;;21.92;;
2211;SDS011;48849;48.758;9.158;2022-12-10T10:47:31;27.20;;;20.55;;
2211;SDS011;48849;48.758;9.158;2022-12-10T10:49:58;28.30;;;21.10;;
2211;SDS011;48849;48.758;9.158;2022-12-10T10:52:27;25.90;;;20.60;;
2211;SDS011;48849;48.758;9.158;2022-12-10T10:54:55;27.73;;;21.15;;
2211;SDS011;48849;48.758;9.158;2022-12-10T10:57:24;27.35;;;20.88;;
2211;SDS011;48849;48.758;9.158;2022-12-10T10:59:55;28.30;;;23.13;;
2211;SDS011;48849;48.758;9.158;2022-12-10T11:02:31;28.50;;;22.48;;
2211;SDS011;48849;48.758;9.158;2022-12-10T11:05:04;26.95;;;20.75;;
2211;SDS011;48849;48.758;9.158;2022-12-10T11:07:33;27.73;;;20.08;;
2211;SDS011;48849;48.758;9.158;2022-12-10T11:10:03;27.77;;;21.63;;
2211;SDS011;48849;48.758;9.158;2022-12-10T11:12:41;26.80;;;20.75;;
2211;SDS011;48849;48.758;9.158;2022-12-10T11:15:29;27.08;;;20.20;;
2211;SDS011;48849;48.758;9.158;2022-12-10T11:18:00;25.92;;;20.33;;
2211;SDS011;48849;48.758;9.158;2022-12-10T11:20:29;25.80;;;19.75;;
2211;SDS011;48849;48.758;9.158;2022-12-10T11:22:57;26.05;;;21.10;;
2211;SDS011;48849;48.758;9.158;2022-12-10T11:25:35;29.23;;;21.92;;
2211;SDS011;48849;48.758;9.158;2022-12-10T11:28:14;25.60;;;20.20;;
2211;SDS011;48849;48.758;9.158;2022-12-10T11:30:56;27.80;;;20.10;;
2211;SDS011;48849;48.758;9.158;2022-12-10T11:33:33;25.67;;;20.30;;
2211;SDS011;48849;48.758;9.158;2022-12-10T11:36:23;25.05;;;19.75;;
2211;SDS011;48849;48.758;9.158;2022-12-10T11:39:01;25.13;;;19.55;;
2211;SDS011;48849;48.758;9.158;2022-12-10T11:41:37;25.55;;;19.33;;
2211;SDS011;48849;48.758;9.158;2022-12-10T11:44:14;25.02;;;20.05;;
2211;SDS011;48849;48.758;9.158;2022-12-10T11:47:01;24.45;;;18.40;;
2211;SDS011;48849;48.758;9.158;2022-12-10T11:49:42;24.40;;;18.70;;
2211;SDS011;48849;48.758;9.158;2022-12-10T11:52:20;25.35;;;19.70;;
2211;SDS011;48849;48.758;9.158;2022-12-10T11:55:02;31.25;;;23.10;;
2211;SDS011;48849;48.758;9.158;2022-12-10T11:57:40;31.02;;;21.48;;
2211;SDS011;48849;48.758;9.158;2022-12-10T12:00:18;24.05;;;18.40;;
2211;SDS011;48849;48.758;9.158;2022-12-10T12:03:00;43.15;;;23.95;;
2211;SDS011;48849;48.758;9.158;2022-12-10T12:05:48;29.30;;;21.35;;
2211;SDS011;48849;48.758;9.158;2022-12-10T12:08:24;24.45;;;17.90;;
2211;SDS011;48849;48.758;9.158;2022-12-10T12:11:01;25.08;;;19.48;;
2211;SDS011;48849;48.758;9.158;2022-12-10T12:13:35;22.10;;;17.73;;
2211;SDS011;48849;48.758;9.158;2022-12-10T12:16:09;23.50;;;18.58;;
2211;SDS011;48849;48.758;9.158;2022-12-10T12:18:41;23.02;;;18.02;;
2211;SDS011;48849;48.758;9.158;2022-12-10T12:21:14;24.05;;;18.80;;
2211;SDS011;48849;48.758;9.158;2022-12-10T12:23:44;24.58;;;19.10;;
2211;SDS011;48849;48.758;9.158;2022-12-10T12:26:17;26.92;;;19.92;;
2211;SDS011;48849;48.758;9.158;2022-12-10T12:28:48;26.30;;;20.17;;
2211;SDS011;48849;48.758;9.158;2022-12-10T12:31:22;25.52;;;19.88;;
2211;SDS011;48849;48.758;9.158;2022-12-10T12:33:57;26.90;;;21.02;;
2211;SDS011;48849;48.758;9.158;2022-12-10T12:36:29;29.15;;;21.83;;
2211;SDS011;48849;48.758;9.158;2022-12-10T12:39:00;27.67;;;21.65;;
2211;SDS011;48849;48.758;9.158;2022-12-10T12:41:32;22.92;;;19.10;;
2211;SDS011;48849;48.758;9.158;2022-12-10T12:44:07;26.08;;;21.02;;
2211;SDS011;48849;48.758;9.158;2022-12-10T12:46:40;35.22;;;24.50;;
2211;SDS011;48849;48.758;9.158;2022-12-10T12:49:10;29.65;;;21.85;;
2211;SDS011;48849;48.758;9.158;2022-12-10T12:51:48;25.73;;;19.83;;
2211;SDS011;48849;48.758;9.158;2022-12-10T12:54:18;24.20;;;18.33;;
2211;SDS011;48849;48.758;9.158;2022-12-10T12:56:51;23.48;;;17.95;;
2211;SDS011;48849;48.758;9.158;2022-12-10T12:59:27;21.10;;;17.05;;
2211;SDS011;48849;48.758;9.158;2022-12-10T13:02:06;24.38;;;17.95;;
2211;SDS011;48849;48.758;9.158;2022-12-10T13:04:44;21.23;;;17.30;;
2211;SDS011;48849;48.758;9.158;2022-12-10T13:10:17;26.13;;;19.05;;
2211;SDS011;48849;48.758;9.158;2022-12-10T13:12:51;21.50;;;16.95;;
2211;SDS011;48849;48.758;9.158;2022-12-10T13:15:32;21.95;;;17.35;;
2211;SDS011;48849;48.758;9.158;2022-12-10T13:18:02;23.20;;;16.60;;
2211;SDS011;48849;48.758;9.158;2022-12-10T13:20:46;22.55;;;17.33;;
2211;SDS011;48849;48.758;9.158;2022-12-10T13:23:28;21.20;;;16.95;;
2211;SDS011;48849;48.758;9.158;2022-12-10T13:25:59;23.30;;;18.42;;
2211;SDS011;48849;48.758;9.158;2022-12-10T13:28:28;24.10;;;17.25;;
2211;SDS011;48849;48.758;9.158;2022-12-10T13:31:17;23.95;;;17.75;;
2211;SDS011;48849;48.758;9.158;2022-12-10T13:33:47;24.67;;;18.05;;
2211;SDS011;48849;48.758;9.158;2022-12-10T13:36:20;22.80;;;17.52;;
2211;SDS011;48849;48.758;9.158;2022-12-10T13:39:02;26.30;;;19.30;;
2211;SDS011;48849;48.758;9.158;2022-12-10T13:41:40;25.50;;;18.83;;
2211;SDS011;48849;48.758;9.158;2022-12-10T13:44:46;25.38;;;18.83;;
2211;SDS011;48849;48.758;9.158;2022-12-10T13:47:24;28.23;;;21.10;;
2211;SDS011;48849;48.758;9.158;2022-12-10T13:49:53;25.77;;;20.38;;
2211;SDS011;48849;48.758;9.158;2022-12-10T13:52:23;24.38;;;18.67;;
2211;SDS011;48849;48.758;9.158;2022-12-10T13:54:58;23.92;;;18.38;;
2211;SDS011;48849;48.758;9.158;2022-12-10T13:57:44;29.67;;;24.92;;
2211;SDS011;48849;48.758;9.158;2022-12-10T14:00:35;27.70;;;20.95;;
2211;SDS011;48849;48.758;9.158;2022-12-10T14:03:19;24.55;;;19.80;;
2211;SDS011;48849;48.758;9.158;2022-12-10T14:06:12;22.65;;;18.55;;
2211;SDS011;48849;48.758;9.158;2022-12-10T14:08:42;25.40;;;19.33;;
2211;SDS011;48849;48.758;9.158;2022-12-10T14:11:20;26.17;;;19.92;;
2211;SDS011;48849;48.758;9.158;2022-12-10T14:13:51;26.45;;;18.38;;
2211;SDS011;48849;48.758;9.158;2022-12-10T14:16:23;26.80;;;19.85;;
2211;SDS011;48849;48.758;9.158;2022-12-10T14:18:53;24.63;;;19.23;;
2211;SDS011;48849;48.758;9.158;2022-12-10T14:21:23;23.55;;;19.15;;
2211;SDS011;48849;48.758;9.158;2022-12-10T14:23:51;27.02;;;19.27;;
2211;SDS011;48849;48.758;9.158;2022-12-10T14:26:19;24.30;;;18.52;;
2211;SDS011;48849;48.758;9.158;2022-12-10T14:28:48;27.17;;;18.67;;
2211;SDS011;48849;48.758;9.158;2022-12-10T14:31:23;22.17;;;17.70;;
2211;SDS011;48849;48.758;9.158;2022-12-10T14:33:54;26.95;;;18.83;;
2211;SDS011;48849;48.758;9.158;2022-12-10T14:36:26;27.88;;;18.27;;
2211;SDS011;48849;48.758;9.158;2022-12-10T14:38:55;22.58;;;18.15;;
2211;SDS011;48849;48.758;9.158;2022-12-10T14:41:22;22.88;;;17.42;;
2211;SDS011;48849;48.758;9.158;2022-12-10T14:43:51;24.42;;;18.10;;
2211;SDS011;48849;48.758;9.158;2022-12-10T14:46:20;25.95;;;17.58;;
2211;SDS011;48849;48.758;9.158;2022-12-10T14:48:50;25.08;;;18.42;;
2211;SDS011;48849;48.758;9.158;2022-12-10T14:51:18;22.70;;;17.83;;
2211;SDS011;48849;48.758;9.158;2022-12-10T14:53:47;25.70;;;18.50;;
2211;SDS011;48849;48.758;9.158;2022-12-10T14:56:16;25.58;;;19.10;;